Etusivu
METAR-TAF:

METAR-TAF

Lentoasemat :

Anchorage, Alaska, Yhdysvallat

Anchoragen kansainvälinen lentoasema

Leveyspiiri: 61-10-28N, Pituuspiiri: 149-59-46W, korkeus merenpinnasta: 44 m

Tämänhetkinen sää

Tämä raportti tehtiin 35 minuuttia sitten, kello 06.53 UTC
Tuuli 14 kn luoteesta
Lämpötila 1°C
Kosteus 51%
Ilmanpaine 989 hPa
Näkyvyys: 16.1 km
Muutamia pilviä 6000 ft:n korkeudessa

METAR: PANC 190653Z 32014KT 10SM FEW060 01/M08 A2920 RMK AO2 SLP891 T00061083

Aika: 23:28 (07:28 UTC)

Sääennuste

Tämä raportti tehtiin 2 tuntia ja 5 minuuttia sitten, kello 05.23 UTC
Ennuste voimassa 19. päivästä klo 06 UTC - 20. päivään klo 12 UTC
Tuuli 11 kn pohjoisen/luoteesta
Näkyvyys: 10 km
Muutamia pilviä 6000 ft:n korkeudessa

TAF: PANC 190523Z 1906/2012 34011KT P6SM FEW060

Säähavainnot ja -ennusteet yli 4000 lentoasemalta (METAR- ja TAF-raportit).

Käytössä olevat sääasemat on merkitty karttaan keltaisilla ja punaisilla pisteillä.

Aseta hiiri pisteen päälle nähdäksesi sääaseman nimen.

Klikkaa sitten nähdäksesi säähavainnot ja -ennusteet.

Kartan vaihtaminen: klikkaa mustalla rastilla varustettuja vihreitä pisteitä, niin voit zoomata sisään; viivalla varustettua vihreää pistettä, niin voit zoomata ulos tai vihreitä nuolia, niin pääset viereisille kartoille.


METAR-TAF: